sensor_id;sensor_type;location;lat;lon;timestamp;temperature;humidity
5061;DHT22;2549;52.128;21.068;2023-08-20T00:01:04;25.50;99.90
5061;DHT22;2549;52.128;21.068;2023-08-20T00:03:32;25.50;99.90
5061;DHT22;2549;52.128;21.068;2023-08-20T00:05:59;25.50;99.90
5061;DHT22;2549;52.128;21.068;2023-08-20T00:08:26;25.50;99.90
5061;DHT22;2549;52.128;21.068;2023-08-20T00:10:53;25.50;99.90
5061;DHT22;2549;52.128;21.068;2023-08-20T00:13:20;25.40;99.90
5061;DHT22;2549;52.128;21.068;2023-08-20T00:15:47;25.40;99.90
5061;DHT22;2549;52.128;21.068;2023-08-20T00:18:14;25.40;99.90
5061;DHT22;2549;52.128;21.068;2023-08-20T00:20:41;25.40;99.90
5061;DHT22;2549;52.128;21.068;2023-08-20T00:23:09;25.40;99.90
5061;DHT22;2549;52.128;21.068;2023-08-20T00:25:36;25.40;99.90
5061;DHT22;2549;52.128;21.068;2023-08-20T00:28:03;25.40;99.90
5061;DHT22;2549;52.128;21.068;2023-08-20T00:30:30;25.40;99.90
5061;DHT22;2549;52.128;21.068;2023-08-20T00:32:57;25.30;99.90
5061;DHT22;2549;52.128;21.068;2023-08-20T00:35:24;25.30;99.90
5061;DHT22;2549;52.128;21.068;2023-08-20T00:37:51;25.30;99.90
5061;DHT22;2549;52.128;21.068;2023-08-20T00:40:18;25.30;99.90
5061;DHT22;2549;52.128;21.068;2023-08-20T00:42:45;25.30;99.90
5061;DHT22;2549;52.128;21.068;2023-08-20T00:45:12;25.30;99.90
5061;DHT22;2549;52.128;21.068;2023-08-20T00:47:40;25.30;99.90
5061;DHT22;2549;52.128;21.068;2023-08-20T00:50:08;25.20;99.90
5061;DHT22;2549;52.128;21.068;2023-08-20T00:52:35;25.30;99.90
5061;DHT22;2549;52.128;21.068;2023-08-20T00:55:08;25.20;99.90
5061;DHT22;2549;52.128;21.068;2023-08-20T00:57:37;25.20;99.90
5061;DHT22;2549;52.128;21.068;2023-08-20T01:00:05;25.20;99.90
5061;DHT22;2549;52.128;21.068;2023-08-20T01:02:37;25.20;99.90
5061;DHT22;2549;52.128;21.068;2023-08-20T01:05:07;25.20;99.90
5061;DHT22;2549;52.128;21.068;2023-08-20T01:10:18;25.20;99.90
5061;DHT22;2549;52.128;21.068;2023-08-20T01:12:46;25.20;99.90
5061;DHT22;2549;52.128;21.068;2023-08-20T01:15:13;25.10;99.90
5061;DHT22;2549;52.128;21.068;2023-08-20T01:17:41;25.10;99.90
5061;DHT22;2549;52.128;21.068;2023-08-20T01:20:10;25.10;99.90
5061;DHT22;2549;52.128;21.068;2023-08-20T01:23:24;25.10;99.90
5061;DHT22;2549;52.128;21.068;2023-08-20T01:26:11;25.10;99.90
5061;DHT22;2549;52.128;21.068;2023-08-20T01:28:39;25.10;99.90
5061;DHT22;2549;52.128;21.068;2023-08-20T01:31:07;25.10;99.90
5061;DHT22;2549;52.128;21.068;2023-08-20T01:33:35;25.00;99.90
5061;DHT22;2549;52.128;21.068;2023-08-20T01:36:02;25.00;99.90
5061;DHT22;2549;52.128;21.068;2023-08-20T01:38:36;25.00;99.90
5061;DHT22;2549;52.128;21.068;2023-08-20T01:41:04;25.00;99.90
5061;DHT22;2549;52.128;21.068;2023-08-20T01:43:31;25.00;99.90
5061;DHT22;2549;52.128;21.068;2023-08-20T01:45:58;25.00;99.90
5061;DHT22;2549;52.128;21.068;2023-08-20T01:48:25;25.00;99.90
5061;DHT22;2549;52.128;21.068;2023-08-20T01:50:52;25.00;99.90
5061;DHT22;2549;52.128;21.068;2023-08-20T01:53:19;25.00;99.90
5061;DHT22;2549;52.128;21.068;2023-08-20T01:55:47;24.90;99.90
5061;DHT22;2549;52.128;21.068;2023-08-20T01:58:13;25.00;99.90
5061;DHT22;2549;52.128;21.068;2023-08-20T02:00:41;24.90;99.90
5061;DHT22;2549;52.128;21.068;2023-08-20T02:03:08;24.90;99.90
5061;DHT22;2549;52.128;21.068;2023-08-20T02:05:35;24.90;99.90
5061;DHT22;2549;52.128;21.068;2023-08-20T02:08:02;24.90;99.90
5061;DHT22;2549;52.128;21.068;2023-08-20T02:10:29;24.90;99.90
5061;DHT22;2549;52.128;21.068;2023-08-20T02:12:56;24.90;99.90
5061;DHT22;2549;52.128;21.068;2023-08-20T02:15:23;24.80;99.90
5061;DHT22;2549;52.128;21.068;2023-08-20T02:17:50;24.80;99.90
5061;DHT22;2549;52.128;21.068;2023-08-20T02:20:17;24.80;99.90
5061;DHT22;2549;52.128;21.068;2023-08-20T02:22:45;24.80;99.90
5061;DHT22;2549;52.128;21.068;2023-08-20T02:25:12;24.80;99.90
5061;DHT22;2549;52.128;21.068;2023-08-20T02:27:39;24.80;99.90
5061;DHT22;2549;52.128;21.068;2023-08-20T02:30:06;24.70;99.90
5061;DHT22;2549;52.128;21.068;2023-08-20T02:32:33;24.70;99.90
5061;DHT22;2549;52.128;21.068;2023-08-20T02:35:00;24.70;99.90
5061;DHT22;2549;52.128;21.068;2023-08-20T02:37:27;24.70;99.90
5061;DHT22;2549;52.128;21.068;2023-08-20T02:39:54;24.70;99.90
5061;DHT22;2549;52.128;21.068;2023-08-20T02:42:21;24.70;99.90
5061;DHT22;2549;52.128;21.068;2023-08-20T02:44:48;24.70;99.90
5061;DHT22;2549;52.128;21.068;2023-08-20T02:47:14;24.70;99.90
5061;DHT22;2549;52.128;21.068;2023-08-20T02:49:41;24.70;99.90
5061;DHT22;2549;52.128;21.068;2023-08-20T02:52:08;24.70;99.90
5061;DHT22;2549;52.128;21.068;2023-08-20T02:54:35;24.70;99.90
5061;DHT22;2549;52.128;21.068;2023-08-20T02:57:02;24.70;99.90
5061;DHT22;2549;52.128;21.068;2023-08-20T02:59:29;24.70;99.90
5061;DHT22;2549;52.128;21.068;2023-08-20T03:01:55;24.70;99.90
5061;DHT22;2549;52.128;21.068;2023-08-20T03:04:22;24.70;99.90
5061;DHT22;2549;52.128;21.068;2023-08-20T03:06:49;24.70;99.90
5061;DHT22;2549;52.128;21.068;2023-08-20T03:09:16;24.70;99.90
5061;DHT22;2549;52.128;21.068;2023-08-20T03:11:43;24.70;99.90
5061;DHT22;2549;52.128;21.068;2023-08-20T03:14:10;24.60;99.90
5061;DHT22;2549;52.128;21.068;2023-08-20T03:16:37;24.60;99.90
5061;DHT22;2549;52.128;21.068;2023-08-20T03:19:04;24.60;99.90
5061;DHT22;2549;52.128;21.068;2023-08-20T03:21:30;24.60;99.90
5061;DHT22;2549;52.128;21.068;2023-08-20T03:23:58;24.60;99.90
5061;DHT22;2549;52.128;21.068;2023-08-20T03:26:24;24.60;99.90
5061;DHT22;2549;52.128;21.068;2023-08-20T03:28:51;24.60;99.90
5061;DHT22;2549;52.128;21.068;2023-08-20T03:31:18;24.60;99.90
5061;DHT22;2549;52.128;21.068;2023-08-20T03:33:45;24.60;99.90
5061;DHT22;2549;52.128;21.068;2023-08-20T03:36:12;24.60;99.90
5061;DHT22;2549;52.128;21.068;2023-08-20T03:38:39;24.60;99.90
5061;DHT22;2549;52.128;21.068;2023-08-20T03:41:06;24.60;99.90
5061;DHT22;2549;52.128;21.068;2023-08-20T03:43:33;24.60;99.90
5061;DHT22;2549;52.128;21.068;2023-08-20T03:46:00;24.60;99.90
5061;DHT22;2549;52.128;21.068;2023-08-20T03:48:28;24.60;99.90
5061;DHT22;2549;52.128;21.068;2023-08-20T03:50:56;24.50;99.90
5061;DHT22;2549;52.128;21.068;2023-08-20T03:53:22;24.50;99.90
5061;DHT22;2549;52.128;21.068;2023-08-20T03:55:49;24.50;99.90
5061;DHT22;2549;52.128;21.068;2023-08-20T03:58:17;24.50;99.90
5061;DHT22;2549;52.128;21.068;2023-08-20T04:00:44;24.50;99.90
5061;DHT22;2549;52.128;21.068;2023-08-20T04:03:11;24.40;99.90
5061;DHT22;2549;52.128;21.068;2023-08-20T04:05:39;24.50;99.90
5061;DHT22;2549;52.128;21.068;2023-08-20T04:08:06;24.50;99.90
5061;DHT22;2549;52.128;21.068;2023-08-20T04:10:33;24.50;99.90
5061;DHT22;2549;52.128;21.068;2023-08-20T04:13:00;24.50;99.90
5061;DHT22;2549;52.128;21.068;2023-08-20T04:15:27;24.50;99.90
5061;DHT22;2549;52.128;21.068;2023-08-20T04:17:55;24.50;99.90
5061;DHT22;2549;52.128;21.068;2023-08-20T04:20:22;24.50;99.90
5061;DHT22;2549;52.128;21.068;2023-08-20T04:22:49;24.50;99.90
5061;DHT22;2549;52.128;21.068;2023-08-20T04:25:16;24.50;99.90
5061;DHT22;2549;52.128;21.068;2023-08-20T04:27:43;24.50;99.90
5061;DHT22;2549;52.128;21.068;2023-08-20T04:30:11;24.50;99.90
5061;DHT22;2549;52.128;21.068;2023-08-20T04:32:37;24.50;99.90
5061;DHT22;2549;52.128;21.068;2023-08-20T04:35:05;24.60;99.90
5061;DHT22;2549;52.128;21.068;2023-08-20T04:37:32;24.60;99.90
5061;DHT22;2549;52.128;21.068;2023-08-20T04:39:59;24.60;99.90
5061;DHT22;2549;52.128;21.068;2023-08-20T04:42:26;24.60;99.90
5061;DHT22;2549;52.128;21.068;2023-08-20T04:44:53;24.60;99.90
5061;DHT22;2549;52.128;21.068;2023-08-20T04:47:20;24.60;99.90
5061;DHT22;2549;52.128;21.068;2023-08-20T04:49:47;24.60;99.90
5061;DHT22;2549;52.128;21.068;2023-08-20T04:52:14;24.70;99.90
5061;DHT22;2549;52.128;21.068;2023-08-20T04:54:41;24.70;99.90
5061;DHT22;2549;52.128;21.068;2023-08-20T04:57:10;24.70;99.90
5061;DHT22;2549;52.128;21.068;2023-08-20T04:59:37;24.70;99.90
5061;DHT22;2549;52.128;21.068;2023-08-20T05:02:04;24.70;99.90
5061;DHT22;2549;52.128;21.068;2023-08-20T05:04:31;24.80;99.90
5061;DHT22;2549;52.128;21.068;2023-08-20T05:06:58;24.80;99.90
5061;DHT22;2549;52.128;21.068;2023-08-20T05:09:25;24.80;99.90
5061;DHT22;2549;52.128;21.068;2023-08-20T05:11:52;24.90;99.90
5061;DHT22;2549;52.128;21.068;2023-08-20T05:14:19;24.90;99.90
5061;DHT22;2549;52.128;21.068;2023-08-20T05:16:46;24.90;99.90
5061;DHT22;2549;52.128;21.068;2023-08-20T05:19:12;24.90;99.90
5061;DHT22;2549;52.128;21.068;2023-08-20T05:21:39;25.00;99.90
5061;DHT22;2549;52.128;21.068;2023-08-20T05:24:07;25.00;99.90
5061;DHT22;2549;52.128;21.068;2023-08-20T05:26:34;25.00;99.90
5061;DHT22;2549;52.128;21.068;2023-08-20T05:29:01;25.10;99.90
5061;DHT22;2549;52.128;21.068;2023-08-20T05:31:28;25.10;99.90
5061;DHT22;2549;52.128;21.068;2023-08-20T05:33:54;25.10;99.90
5061;DHT22;2549;52.128;21.068;2023-08-20T05:36:23;25.10;99.90
5061;DHT22;2549;52.128;21.068;2023-08-20T05:38:50;25.20;99.90
5061;DHT22;2549;52.128;21.068;2023-08-20T05:41:17;25.20;99.90
5061;DHT22;2549;52.128;21.068;2023-08-20T05:43:43;25.30;99.90
5061;DHT22;2549;52.128;21.068;2023-08-20T05:46:10;25.30;99.90
5061;DHT22;2549;52.128;21.068;2023-08-20T05:48:37;25.30;99.90
5061;DHT22;2549;52.128;21.068;2023-08-20T05:51:04;25.40;99.90
5061;DHT22;2549;52.128;21.068;2023-08-20T05:53:31;25.40;99.90
5061;DHT22;2549;52.128;21.068;2023-08-20T05:55:58;25.40;99.90
5061;DHT22;2549;52.128;21.068;2023-08-20T05:58:24;25.40;99.90
5061;DHT22;2549;52.128;21.068;2023-08-20T06:00:51;25.50;99.90
5061;DHT22;2549;52.128;21.068;2023-08-20T06:03:18;25.50;99.90
5061;DHT22;2549;52.128;21.068;2023-08-20T06:05:45;25.50;99.90
5061;DHT22;2549;52.128;21.068;2023-08-20T06:08:12;25.50;99.90
5061;DHT22;2549;52.128;21.068;2023-08-20T06:10:39;25.60;99.90
5061;DHT22;2549;52.128;21.068;2023-08-20T06:13:05;25.60;99.90
5061;DHT22;2549;52.128;21.068;2023-08-20T06:15:32;25.60;99.90
5061;DHT22;2549;52.128;21.068;2023-08-20T06:17:59;25.70;99.90
5061;DHT22;2549;52.128;21.068;2023-08-20T06:20:26;25.70;99.90
5061;DHT22;2549;52.128;21.068;2023-08-20T06:22:53;25.70;99.90
5061;DHT22;2549;52.128;21.068;2023-08-20T06:25:20;25.70;99.90
5061;DHT22;2549;52.128;21.068;2023-08-20T06:27:47;25.80;99.90
5061;DHT22;2549;52.128;21.068;2023-08-20T06:30:13;25.80;99.90
5061;DHT22;2549;52.128;21.068;2023-08-20T06:32:41;25.80;99.90
5061;DHT22;2549;52.128;21.068;2023-08-20T06:35:08;25.90;99.90
5061;DHT22;2549;52.128;21.068;2023-08-20T06:37:38;25.90;99.90
5061;DHT22;2549;52.128;21.068;2023-08-20T06:40:06;25.90;99.90
5061;DHT22;2549;52.128;21.068;2023-08-20T06:42:33;25.90;99.90
5061;DHT22;2549;52.128;21.068;2023-08-20T06:45:00;26.00;99.90
5061;DHT22;2549;52.128;21.068;2023-08-20T06:47:26;26.00;99.90
5061;DHT22;2549;52.128;21.068;2023-08-20T06:49:53;26.00;99.90
5061;DHT22;2549;52.128;21.068;2023-08-20T06:52:20;26.00;99.90
5061;DHT22;2549;52.128;21.068;2023-08-20T06:54:47;26.10;99.90
5061;DHT22;2549;52.128;21.068;2023-08-20T06:57:14;26.10;99.90
5061;DHT22;2549;52.128;21.068;2023-08-20T06:59:41;26.20;99.90
5061;DHT22;2549;52.128;21.068;2023-08-20T07:02:10;26.20;99.90
5061;DHT22;2549;52.128;21.068;2023-08-20T07:04:36;26.20;99.90
5061;DHT22;2549;52.128;21.068;2023-08-20T07:07:04;26.20;99.90
5061;DHT22;2549;52.128;21.068;2023-08-20T07:09:34;26.30;99.90
5061;DHT22;2549;52.128;21.068;2023-08-20T07:12:01;26.30;99.90
5061;DHT22;2549;52.128;21.068;2023-08-20T07:14:28;26.30;99.90
5061;DHT22;2549;52.128;21.068;2023-08-20T07:16:55;26.40;99.90
5061;DHT22;2549;52.128;21.068;2023-08-20T07:19:22;26.40;99.90
5061;DHT22;2549;52.128;21.068;2023-08-20T07:21:49;26.40;99.90
5061;DHT22;2549;52.128;21.068;2023-08-20T07:24:16;26.50;99.90
5061;DHT22;2549;52.128;21.068;2023-08-20T07:26:43;26.50;99.90
5061;DHT22;2549;52.128;21.068;2023-08-20T07:29:10;26.60;99.90
5061;DHT22;2549;52.128;21.068;2023-08-20T07:31:37;26.60;99.90
5061;DHT22;2549;52.128;21.068;2023-08-20T07:34:04;26.60;99.90
5061;DHT22;2549;52.128;21.068;2023-08-20T07:36:32;26.70;99.90
5061;DHT22;2549;52.128;21.068;2023-08-20T07:38:59;26.70;99.90
5061;DHT22;2549;52.128;21.068;2023-08-20T07:41:28;26.70;99.90
5061;DHT22;2549;52.128;21.068;2023-08-20T07:43:55;26.80;99.90
5061;DHT22;2549;52.128;21.068;2023-08-20T07:46:22;26.80;99.90
5061;DHT22;2549;52.128;21.068;2023-08-20T07:48:48;26.80;99.90
5061;DHT22;2549;52.128;21.068;2023-08-20T07:51:15;26.80;99.90
5061;DHT22;2549;52.128;21.068;2023-08-20T07:53:42;26.90;99.90
5061;DHT22;2549;52.128;21.068;2023-08-20T07:56:09;26.90;99.90
5061;DHT22;2549;52.128;21.068;2023-08-20T07:58:36;27.00;99.90
5061;DHT22;2549;52.128;21.068;2023-08-20T08:01:03;27.10;99.90
5061;DHT22;2549;52.128;21.068;2023-08-20T08:03:30;27.10;99.90
5061;DHT22;2549;52.128;21.068;2023-08-20T08:05:57;27.10;99.90
5061;DHT22;2549;52.128;21.068;2023-08-20T08:08:24;27.20;99.90
5061;DHT22;2549;52.128;21.068;2023-08-20T08:10:50;27.20;99.90
5061;DHT22;2549;52.128;21.068;2023-08-20T08:13:22;27.20;99.90
5061;DHT22;2549;52.128;21.068;2023-08-20T08:15:50;27.20;99.90
5061;DHT22;2549;52.128;21.068;2023-08-20T08:18:17;27.20;99.90
5061;DHT22;2549;52.128;21.068;2023-08-20T08:20:45;27.20;99.90
5061;DHT22;2549;52.128;21.068;2023-08-20T08:23:12;27.20;99.90
5061;DHT22;2549;52.128;21.068;2023-08-20T08:25:39;27.30;99.90
5061;DHT22;2549;52.128;21.068;2023-08-20T08:28:06;27.40;99.90
5061;DHT22;2549;52.128;21.068;2023-08-20T08:30:33;27.40;99.90
5061;DHT22;2549;52.128;21.068;2023-08-20T08:33:00;27.40;99.90
5061;DHT22;2549;52.128;21.068;2023-08-20T08:35:27;27.50;99.90
5061;DHT22;2549;52.128;21.068;2023-08-20T08:37:54;27.40;99.90
5061;DHT22;2549;52.128;21.068;2023-08-20T08:40:21;27.40;99.90
5061;DHT22;2549;52.128;21.068;2023-08-20T08:42:49;27.50;99.90
5061;DHT22;2549;52.128;21.068;2023-08-20T08:45:19;27.50;99.90
5061;DHT22;2549;52.128;21.068;2023-08-20T08:47:48;27.50;99.90
5061;DHT22;2549;52.128;21.068;2023-08-20T08:50:16;27.60;99.90
5061;DHT22;2549;52.128;21.068;2023-08-20T08:52:45;27.60;99.90
5061;DHT22;2549;52.128;21.068;2023-08-20T08:55:12;27.50;99.90
5061;DHT22;2549;52.128;21.068;2023-08-20T08:57:39;27.60;99.90
5061;DHT22;2549;52.128;21.068;2023-08-20T09:00:07;27.70;99.90
5061;DHT22;2549;52.128;21.068;2023-08-20T09:02:34;27.80;99.90
5061;DHT22;2549;52.128;21.068;2023-08-20T09:05:01;27.80;99.90
5061;DHT22;2549;52.128;21.068;2023-08-20T09:07:28;27.80;99.90
5061;DHT22;2549;52.128;21.068;2023-08-20T09:09:58;27.80;99.90
5061;DHT22;2549;52.128;21.068;2023-08-20T09:12:28;27.80;99.90
5061;DHT22;2549;52.128;21.068;2023-08-20T09:14:55;27.80;99.90
5061;DHT22;2549;52.128;21.068;2023-08-20T09:17:27;27.80;99.90
5061;DHT22;2549;52.128;21.068;2023-08-20T09:19:56;27.90;99.90
5061;DHT22;2549;52.128;21.068;2023-08-20T09:22:24;28.10;99.90
5061;DHT22;2549;52.128;21.068;2023-08-20T09:24:56;28.20;99.90
5061;DHT22;2549;52.128;21.068;2023-08-20T09:27:23;28.40;99.90
5061;DHT22;2549;52.128;21.068;2023-08-20T09:29:55;28.40;99.90
5061;DHT22;2549;52.128;21.068;2023-08-20T09:32:23;28.50;99.90
5061;DHT22;2549;52.128;21.068;2023-08-20T09:34:52;28.60;99.90
5061;DHT22;2549;52.128;21.068;2023-08-20T09:37:21;28.60;99.90
5061;DHT22;2549;52.128;21.068;2023-08-20T09:39:49;28.50;99.90
5061;DHT22;2549;52.128;21.068;2023-08-20T09:42:16;28.50;99.90
5061;DHT22;2549;52.128;21.068;2023-08-20T09:44:45;28.50;99.90
5061;DHT22;2549;52.128;21.068;2023-08-20T09:47:16;28.50;99.90
5061;DHT22;2549;52.128;21.068;2023-08-20T09:49:45;28.50;99.90
5061;DHT22;2549;52.128;21.068;2023-08-20T09:52:20;28.50;99.90
5061;DHT22;2549;52.128;21.068;2023-08-20T09:55:09;28.50;99.90
5061;DHT22;2549;52.128;21.068;2023-08-20T09:57:40;28.50;99.90
5061;DHT22;2549;52.128;21.068;2023-08-20T10:00:12;28.50;99.90
5061;DHT22;2549;52.128;21.068;2023-08-20T10:02:41;28.60;99.90
5061;DHT22;2549;52.128;21.068;2023-08-20T10:05:09;28.60;99.90
5061;DHT22;2549;52.128;21.068;2023-08-20T10:07:37;28.60;99.90
5061;DHT22;2549;52.128;21.068;2023-08-20T10:10:06;28.60;99.90
5061;DHT22;2549;52.128;21.068;2023-08-20T10:12:34;28.70;99.90
5061;DHT22;2549;52.128;21.068;2023-08-20T10:15:01;28.60;99.90
5061;DHT22;2549;52.128;21.068;2023-08-20T10:17:33;28.70;99.90
5061;DHT22;2549;52.128;21.068;2023-08-20T10:20:03;28.80;99.90
5061;DHT22;2549;52.128;21.068;2023-08-20T10:22:44;28.90;99.90
5061;DHT22;2549;52.128;21.068;2023-08-20T10:25:25;28.90;99.90
5061;DHT22;2549;52.128;21.068;2023-08-20T10:27:53;29.00;99.90
5061;DHT22;2549;52.128;21.068;2023-08-20T10:30:25;28.90;99.90
5061;DHT22;2549;52.128;21.068;2023-08-20T10:32:54;28.90;99.90
5061;DHT22;2549;52.128;21.068;2023-08-20T10:35:28;29.00;99.90
5061;DHT22;2549;52.128;21.068;2023-08-20T10:38:03;28.90;99.40
5061;DHT22;2549;52.128;21.068;2023-08-20T10:40:51;29.00;99.30
5061;DHT22;2549;52.128;21.068;2023-08-20T10:43:28;29.10;99.60
5061;DHT22;2549;52.128;21.068;2023-08-20T10:48:37;29.10;99.90
5061;DHT22;2549;52.128;21.068;2023-08-20T10:51:16;29.10;99.90
5061;DHT22;2549;52.128;21.068;2023-08-20T10:54:07;29.10;99.90
5061;DHT22;2549;52.128;21.068;2023-08-20T10:59:16;29.10;99.10
5061;DHT22;2549;52.128;21.068;2023-08-20T11:01:44;29.20;98.50
5061;DHT22;2549;52.128;21.068;2023-08-20T11:04:15;29.40;98.00
5061;DHT22;2549;52.128;21.068;2023-08-20T11:06:42;29.60;97.30
5061;DHT22;2549;52.128;21.068;2023-08-20T11:09:10;29.60;97.80
5061;DHT22;2549;52.128;21.068;2023-08-20T11:11:41;29.70;97.50
5061;DHT22;2549;52.128;21.068;2023-08-20T11:14:13;29.70;98.30
5061;DHT22;2549;52.128;21.068;2023-08-20T11:16:43;29.60;98.20
5061;DHT22;2549;52.128;21.068;2023-08-20T11:19:12;29.50;98.30
5061;DHT22;2549;52.128;21.068;2023-08-20T11:21:41;29.50;98.90
5061;DHT22;2549;52.128;21.068;2023-08-20T11:24:09;29.50;98.50
5061;DHT22;2549;52.128;21.068;2023-08-20T11:26:38;29.50;98.90
5061;DHT22;2549;52.128;21.068;2023-08-20T11:29:10;29.50;98.90
5061;DHT22;2549;52.128;21.068;2023-08-20T11:31:37;29.50;99.00
5061;DHT22;2549;52.128;21.068;2023-08-20T11:34:05;29.50;97.80
5061;DHT22;2549;52.128;21.068;2023-08-20T11:36:33;29.60;97.00
5061;DHT22;2549;52.128;21.068;2023-08-20T11:38:59;29.70;97.20
5061;DHT22;2549;52.128;21.068;2023-08-20T11:41:26;29.80;97.40
5061;DHT22;2549;52.128;21.068;2023-08-20T11:43:54;29.80;97.10
5061;DHT22;2549;52.128;21.068;2023-08-20T11:46:22;29.70;97.80
5061;DHT22;2549;52.128;21.068;2023-08-20T11:49:09;29.70;97.00
5061;DHT22;2549;52.128;21.068;2023-08-20T11:51:36;29.80;97.10
5061;DHT22;2549;52.128;21.068;2023-08-20T11:54:11;29.80;97.80
5061;DHT22;2549;52.128;21.068;2023-08-20T11:56:50;29.90;97.40
5061;DHT22;2549;52.128;21.068;2023-08-20T11:59:19;29.90;97.70
5061;DHT22;2549;52.128;21.068;2023-08-20T12:01:51;30.00;98.00
5061;DHT22;2549;52.128;21.068;2023-08-20T12:04:18;30.00;97.80
5061;DHT22;2549;52.128;21.068;2023-08-20T12:07:13;30.00;98.00
5061;DHT22;2549;52.128;21.068;2023-08-20T12:09:40;30.00;98.10
5061;DHT22;2549;52.128;21.068;2023-08-20T12:12:09;30.00;97.80
5061;DHT22;2549;52.128;21.068;2023-08-20T12:14:36;30.00;97.40
5061;DHT22;2549;52.128;21.068;2023-08-20T12:17:03;30.10;97.30
5061;DHT22;2549;52.128;21.068;2023-08-20T12:19:30;30.20;97.50
5061;DHT22;2549;52.128;21.068;2023-08-20T12:21:57;30.20;97.40
5061;DHT22;2549;52.128;21.068;2023-08-20T12:24:24;30.30;96.80
5061;DHT22;2549;52.128;21.068;2023-08-20T12:26:52;30.30;97.20
5061;DHT22;2549;52.128;21.068;2023-08-20T12:29:19;30.30;97.00
5061;DHT22;2549;52.128;21.068;2023-08-20T12:31:47;30.30;97.70
5061;DHT22;2549;52.128;21.068;2023-08-20T12:34:13;30.30;97.60
5061;DHT22;2549;52.128;21.068;2023-08-20T12:36:40;30.30;97.00
5061;DHT22;2549;52.128;21.068;2023-08-20T12:39:07;30.50;96.40
5061;DHT22;2549;52.128;21.068;2023-08-20T12:41:35;30.40;97.30
5061;DHT22;2549;52.128;21.068;2023-08-20T12:44:05;30.40;97.70
5061;DHT22;2549;52.128;21.068;2023-08-20T12:46:32;30.40;97.10
5061;DHT22;2549;52.128;21.068;2023-08-20T12:48:59;30.40;97.20
5061;DHT22;2549;52.128;21.068;2023-08-20T12:51:27;30.40;97.40
5061;DHT22;2549;52.128;21.068;2023-08-20T12:53:54;30.40;96.90
5061;DHT22;2549;52.128;21.068;2023-08-20T12:56:20;30.40;96.40
5061;DHT22;2549;52.128;21.068;2023-08-20T12:58:47;30.50;96.60
5061;DHT22;2549;52.128;21.068;2023-08-20T13:01:14;30.60;95.90
5061;DHT22;2549;52.128;21.068;2023-08-20T13:03:41;30.50;95.80
5061;DHT22;2549;52.128;21.068;2023-08-20T13:06:08;30.60;96.10
5061;DHT22;2549;52.128;21.068;2023-08-20T13:08:36;30.60;95.90
5061;DHT22;2549;52.128;21.068;2023-08-20T13:11:03;30.60;96.10
5061;DHT22;2549;52.128;21.068;2023-08-20T13:13:33;30.70;95.90
5061;DHT22;2549;52.128;21.068;2023-08-20T13:16:01;30.70;95.70
5061;DHT22;2549;52.128;21.068;2023-08-20T13:18:29;30.60;95.60
5061;DHT22;2549;52.128;21.068;2023-08-20T13:20:56;30.60;94.90
5061;DHT22;2549;52.128;21.068;2023-08-20T13:23:23;30.60;94.10
5061;DHT22;2549;52.128;21.068;2023-08-20T13:25:50;30.70;94.30
5061;DHT22;2549;52.128;21.068;2023-08-20T13:28:17;30.70;93.70
5061;DHT22;2549;52.128;21.068;2023-08-20T13:30:45;30.70;94.40
5061;DHT22;2549;52.128;21.068;2023-08-20T13:33:13;30.80;95.30
5061;DHT22;2549;52.128;21.068;2023-08-20T13:35:41;30.70;95.20
5061;DHT22;2549;52.128;21.068;2023-08-20T13:38:08;30.70;95.20
5061;DHT22;2549;52.128;21.068;2023-08-20T13:40:35;30.80;95.20
5061;DHT22;2549;52.128;21.068;2023-08-20T13:43:02;30.80;95.20
5061;DHT22;2549;52.128;21.068;2023-08-20T13:45:29;30.90;95.60
5061;DHT22;2549;52.128;21.068;2023-08-20T13:47:57;30.80;95.90
5061;DHT22;2549;52.128;21.068;2023-08-20T13:50:24;30.80;95.50
5061;DHT22;2549;52.128;21.068;2023-08-20T13:52:51;30.70;95.50
5061;DHT22;2549;52.128;21.068;2023-08-20T13:55:18;30.80;95.60
5061;DHT22;2549;52.128;21.068;2023-08-20T13:57:45;30.80;96.00
5061;DHT22;2549;52.128;21.068;2023-08-20T14:00:12;30.80;95.60
5061;DHT22;2549;52.128;21.068;2023-08-20T14:02:40;30.80;95.70
5061;DHT22;2549;52.128;21.068;2023-08-20T14:05:07;30.80;94.40
5061;DHT22;2549;52.128;21.068;2023-08-20T14:07:34;31.00;93.90
5061;DHT22;2549;52.128;21.068;2023-08-20T14:10:02;31.00;94.00
5061;DHT22;2549;52.128;21.068;2023-08-20T14:12:31;31.20;93.70
5061;DHT22;2549;52.128;21.068;2023-08-20T14:14:58;31.20;93.40
5061;DHT22;2549;52.128;21.068;2023-08-20T14:17:25;31.10;93.30
5061;DHT22;2549;52.128;21.068;2023-08-20T14:19:52;31.30;93.50
5061;DHT22;2549;52.128;21.068;2023-08-20T14:22:19;31.20;93.70
5061;DHT22;2549;52.128;21.068;2023-08-20T14:24:46;31.20;94.40
5061;DHT22;2549;52.128;21.068;2023-08-20T14:27:13;31.10;94.20
5061;DHT22;2549;52.128;21.068;2023-08-20T14:29:41;31.10;94.20
5061;DHT22;2549;52.128;21.068;2023-08-20T14:32:08;31.10;94.10
5061;DHT22;2549;52.128;21.068;2023-08-20T14:34:35;31.10;93.60
5061;DHT22;2549;52.128;21.068;2023-08-20T14:37:02;31.00;94.00
5061;DHT22;2549;52.128;21.068;2023-08-20T14:39:31;31.10;94.60
5061;DHT22;2549;52.128;21.068;2023-08-20T14:41:58;31.00;93.70
5061;DHT22;2549;52.128;21.068;2023-08-20T14:44:25;31.00;94.00
5061;DHT22;2549;52.128;21.068;2023-08-20T14:46:52;31.10;93.90
5061;DHT22;2549;52.128;21.068;2023-08-20T14:49:19;31.00;93.90
5061;DHT22;2549;52.128;21.068;2023-08-20T14:51:46;31.10;94.10
5061;DHT22;2549;52.128;21.068;2023-08-20T14:54:13;31.10;94.10
5061;DHT22;2549;52.128;21.068;2023-08-20T14:56:41;31.00;94.30
5061;DHT22;2549;52.128;21.068;2023-08-20T14:59:08;31.00;94.30
5061;DHT22;2549;52.128;21.068;2023-08-20T15:01:37;31.00;94.30
5061;DHT22;2549;52.128;21.068;2023-08-20T15:04:03;30.90;94.20
5061;DHT22;2549;52.128;21.068;2023-08-20T15:06:31;31.00;94.30
5061;DHT22;2549;52.128;21.068;2023-08-20T15:08:57;31.00;94.30
5061;DHT22;2549;52.128;21.068;2023-08-20T15:11:24;31.00;94.40
5061;DHT22;2549;52.128;21.068;2023-08-20T15:13:52;31.00;93.80
5061;DHT22;2549;52.128;21.068;2023-08-20T15:16:18;31.00;93.50
5061;DHT22;2549;52.128;21.068;2023-08-20T15:18:45;31.10;94.00
5061;DHT22;2549;52.128;21.068;2023-08-20T15:21:12;31.10;93.80
5061;DHT22;2549;52.128;21.068;2023-08-20T15:23:39;31.10;93.90
5061;DHT22;2549;52.128;21.068;2023-08-20T15:26:06;31.10;94.30
5061;DHT22;2549;52.128;21.068;2023-08-20T15:28:33;31.10;94.50
5061;DHT22;2549;52.128;21.068;2023-08-20T15:31:00;31.00;93.60
5061;DHT22;2549;52.128;21.068;2023-08-20T15:33:28;31.00;94.10
5061;DHT22;2549;52.128;21.068;2023-08-20T15:35:58;31.00;93.50
5061;DHT22;2549;52.128;21.068;2023-08-20T15:38:26;31.00;93.10
5061;DHT22;2549;52.128;21.068;2023-08-20T15:40:54;31.00;93.60
5061;DHT22;2549;52.128;21.068;2023-08-20T15:43:21;31.00;93.70
5061;DHT22;2549;52.128;21.068;2023-08-20T15:45:48;31.00;93.60
5061;DHT22;2549;52.128;21.068;2023-08-20T15:48:15;31.00;93.50
5061;DHT22;2549;52.128;21.068;2023-08-20T15:50:42;31.00;92.80
5061;DHT22;2549;52.128;21.068;2023-08-20T15:53:09;31.00;93.40
5061;DHT22;2549;52.128;21.068;2023-08-20T15:55:36;31.00;93.10
5061;DHT22;2549;52.128;21.068;2023-08-20T15:58:03;31.00;93.50